createdAt,value
2023-04-17T00:00:34.906Z,18.03
2023-04-17T00:03:03.498Z,18.02
2023-04-17T00:05:33.947Z,18.01
2023-04-17T00:08:02.515Z,18.02
2023-04-17T00:10:30.574Z,18.01
2023-04-17T00:12:58.819Z,18.00
2023-04-17T00:15:27.244Z,18.00
2023-04-17T00:17:56.958Z,17.99
2023-04-17T00:20:25.146Z,18.00
2023-04-17T00:22:53.305Z,17.98
2023-04-17T00:25:21.317Z,17.99
2023-04-17T00:27:50.852Z,17.95
2023-04-17T00:30:19.184Z,17.97
2023-04-17T00:32:47.190Z,17.94
2023-04-17T00:35:16.998Z,17.97
2023-04-17T00:37:45.084Z,18.00
2023-04-17T00:40:13.962Z,17.97
2023-04-17T00:42:42.001Z,18.00
2023-04-17T00:45:11.541Z,17.99
2023-04-17T00:47:39.913Z,18.02
2023-04-17T00:50:09.609Z,18.03
2023-04-17T00:52:39.172Z,18.07
2023-04-17T00:55:09.009Z,18.05
2023-04-17T00:57:37.351Z,18.07
2023-04-17T01:00:08.560Z,18.08
2023-04-17T01:02:37.414Z,18.07
2023-04-17T01:05:06.135Z,18.10
2023-04-17T01:07:34.280Z,18.08
2023-04-17T01:10:03.985Z,18.08
2023-04-17T01:12:32.285Z,18.08
2023-04-17T01:15:00.334Z,18.05
2023-04-17T01:17:29.050Z,18.07
2023-04-17T01:19:59.311Z,18.07
2023-04-17T01:22:27.419Z,18.05
2023-04-17T01:24:56.973Z,18.05
2023-04-17T01:27:25.220Z,18.07
2023-04-17T01:29:53.383Z,18.06
2023-04-17T01:32:22.818Z,18.04
2023-04-17T01:34:59.110Z,18.03
2023-04-17T01:37:29.768Z,18.02
2023-04-17T01:40:05.193Z,17.99
2023-04-17T01:42:34.083Z,17.99
2023-04-17T01:45:03.355Z,17.97
2023-04-17T01:47:32.770Z,17.98
2023-04-17T01:50:02.331Z,17.96
2023-04-17T01:52:37.880Z,17.96
2023-04-17T01:55:16.067Z,17.98
2023-04-17T01:57:49.003Z,17.95
2023-04-17T02:00:20.742Z,17.96
2023-04-17T02:02:56.418Z,17.91
2023-04-17T02:08:31.569Z,17.87
2023-04-17T02:11:12.941Z,17.84
2023-04-17T02:13:59.461Z,17.82
2023-04-17T02:16:29.325Z,17.78
2023-04-17T02:19:03.579Z,17.72
2023-04-17T02:21:35.844Z,17.69
2023-04-17T02:24:06.704Z,17.64
2023-04-17T02:26:50.712Z,17.62
2023-04-17T02:29:36.590Z,17.51
2023-04-17T02:32:19.559Z,17.48
2023-04-17T02:34:49.070Z,17.42
2023-04-17T02:37:17.857Z,17.38
2023-04-17T02:39:46.386Z,17.37
2023-04-17T02:42:15.963Z,17.34
2023-04-17T02:44:46.830Z,17.32
2023-04-17T02:47:15.124Z,17.30
2023-04-17T02:49:43.777Z,17.28
2023-04-17T02:52:12.043Z,17.25
2023-04-17T02:58:21.930Z,17.24
2023-04-17T03:00:51.988Z,17.27
2023-04-17T03:03:20.454Z,17.29
2023-04-17T03:05:49.188Z,17.31
2023-04-17T03:08:18.073Z,17.32
2023-04-17T03:10:49.049Z,17.34
2023-04-17T03:13:17.563Z,17.36
2023-04-17T03:15:45.820Z,17.37
2023-04-17T03:18:16.120Z,17.38
2023-04-17T03:20:47.735Z,17.38
2023-04-17T03:23:16.682Z,17.39
2023-04-17T03:25:46.260Z,17.40
2023-04-17T03:28:14.406Z,17.39
2023-04-17T03:30:42.648Z,17.39
2023-04-17T03:33:11.289Z,17.41
2023-04-17T03:35:44.690Z,17.40
2023-04-17T03:38:18.750Z,17.43
2023-04-17T03:40:47.898Z,17.41
2023-04-17T03:43:16.085Z,17.43
2023-04-17T03:45:47.044Z,17.46
2023-04-17T03:48:15.287Z,17.47
2023-04-17T03:50:45.116Z,17.46
2023-04-17T03:53:14.011Z,17.47
2023-04-17T03:55:46.102Z,17.48
2023-04-17T03:58:14.802Z,17.45
2023-04-17T04:00:44.149Z,17.48
2023-04-17T04:03:18.739Z,17.48
2023-04-17T04:05:49.208Z,17.50
2023-04-17T04:08:17.555Z,17.45
2023-04-17T04:13:30.099Z,17.42
2023-04-17T04:16:11.461Z,17.39
2023-04-17T04:18:40.872Z,17.37
2023-04-17T04:21:25.965Z,17.33
2023-04-17T04:27:09.532Z,17.29
2023-04-17T04:29:38.525Z,17.30
2023-04-17T04:32:09.915Z,17.28
2023-04-17T04:34:41.058Z,17.28
2023-04-17T04:37:10.178Z,17.23
2023-04-17T04:39:39.575Z,17.20
2023-04-17T04:42:10.510Z,17.18
2023-04-17T04:44:42.352Z,17.14
2023-04-17T04:47:12.161Z,17.14
2023-04-17T04:49:41.102Z,17.12
2023-04-17T04:52:22.726Z,17.09
2023-04-17T04:54:52.216Z,17.06
2023-04-17T04:57:24.473Z,17.02
2023-04-17T04:59:53.266Z,16.97
2023-04-17T05:02:24.797Z,16.93
2023-04-17T05:04:53.641Z,16.88
2023-04-17T05:07:23.328Z,16.84
2023-04-17T05:09:55.072Z,16.82
2023-04-17T05:12:25.719Z,16.77
2023-04-17T05:14:53.877Z,16.73
2023-04-17T05:17:22.172Z,16.71
2023-04-17T05:19:51.048Z,16.68
2023-04-17T05:22:21.976Z,16.66
2023-04-17T05:24:51.020Z,16.63
2023-04-17T05:27:19.067Z,16.64
2023-04-17T05:29:48.598Z,16.67
2023-04-17T05:32:16.836Z,16.67
2023-04-17T05:34:44.864Z,16.68
2023-04-17T05:37:12.858Z,16.70
2023-04-17T05:39:41.446Z,16.70
2023-04-17T05:42:09.694Z,16.70
2023-04-17T05:44:37.854Z,16.69
2023-04-17T05:47:07.654Z,16.73
2023-04-17T05:49:36.312Z,16.80
2023-04-17T05:52:04.821Z,16.81
2023-04-17T05:54:33.035Z,16.84
2023-04-17T05:57:01.087Z,16.82
2023-04-17T05:59:29.244Z,16.79
2023-04-17T06:01:59.663Z,16.78
2023-04-17T06:04:30.191Z,16.82
2023-04-17T06:06:58.892Z,16.84
2023-04-17T06:09:27.554Z,16.89
2023-04-17T06:11:55.743Z,16.88
2023-04-17T06:14:23.865Z,16.93
2023-04-17T06:16:52.098Z,16.93
2023-04-17T06:19:20.948Z,16.99
2023-04-17T06:21:50.460Z,17.01
2023-04-17T06:24:19.066Z,17.08
2023-04-17T06:26:47.189Z,17.13
2023-04-17T06:29:15.720Z,17.21
2023-04-17T06:31:43.792Z,17.28
2023-04-17T06:34:12.093Z,17.36
2023-04-17T06:36:40.391Z,17.38
2023-04-17T06:39:10.342Z,17.44
2023-04-17T06:41:38.672Z,17.45
2023-04-17T06:44:08.841Z,17.47
2023-04-17T06:46:37.064Z,17.58
2023-04-17T06:49:05.092Z,17.62
2023-04-17T06:51:33.151Z,17.65
2023-04-17T06:54:01.679Z,17.71
2023-04-17T06:56:31.499Z,17.69
2023-04-17T06:59:04.521Z,17.77
2023-04-17T07:01:32.618Z,17.80
2023-04-17T07:04:00.788Z,17.88
2023-04-17T07:06:29.901Z,17.96
2023-04-17T07:08:57.966Z,18.05
2023-04-17T07:11:26.251Z,18.16
2023-04-17T07:13:55.764Z,18.19
2023-04-17T07:16:23.976Z,18.28
2023-04-17T07:18:52.557Z,18.36
2023-04-17T07:21:21.030Z,18.39
2023-04-17T07:23:49.394Z,18.45
2023-04-17T07:26:17.539Z,18.47
2023-04-17T07:28:46.447Z,18.47
2023-04-17T07:31:16.273Z,18.63
2023-04-17T07:33:44.507Z,18.63
2023-04-17T07:36:13.067Z,18.67
2023-04-17T07:38:41.947Z,18.77
2023-04-17T07:41:10.347Z,18.80
2023-04-17T07:43:38.981Z,18.91
2023-04-17T07:46:07.480Z,18.98
2023-04-17T07:48:39.795Z,19.09
2023-04-17T07:51:08.216Z,19.18
2023-04-17T07:53:38.717Z,19.22
2023-04-17T07:56:07.391Z,19.29
2023-04-17T07:58:36.519Z,19.29
2023-04-17T08:01:06.054Z,19.36
2023-04-17T08:03:34.410Z,19.45
2023-04-17T08:06:04.172Z,19.59
2023-04-17T08:08:32.640Z,19.64
2023-04-17T08:11:00.659Z,19.73
2023-04-17T08:13:30.837Z,19.81
2023-04-17T08:15:59.703Z,19.92
2023-04-17T08:18:27.901Z,20.02
2023-04-17T08:20:55.947Z,20.13
2023-04-17T08:23:26.032Z,20.24
2023-04-17T08:25:54.092Z,20.37
2023-04-17T08:28:22.069Z,20.44
2023-04-17T08:30:50.220Z,20.49
2023-04-17T08:33:18.664Z,20.61
2023-04-17T08:35:47.082Z,20.61
2023-04-17T08:38:15.937Z,20.71
2023-04-17T08:40:52.189Z,20.81
2023-04-17T08:43:21.275Z,20.94
2023-04-17T08:45:54.234Z,21.03
2023-04-17T08:48:23.100Z,21.11
2023-04-17T08:50:52.944Z,21.19
2023-04-17T08:53:21.832Z,21.31
2023-04-17T08:55:51.304Z,21.40
2023-04-17T08:58:21.961Z,21.50
2023-04-17T09:00:50.445Z,21.61
2023-04-17T09:03:18.490Z,21.71
2023-04-17T09:05:46.938Z,21.87
2023-04-17T09:08:20.901Z,21.97
2023-04-17T09:10:53.747Z,22.08
2023-04-17T09:13:25.068Z,22.13
2023-04-17T09:16:06.359Z,22.22
2023-04-17T09:18:35.654Z,22.36
2023-04-17T09:21:05.265Z,22.40
2023-04-17T09:23:47.124Z,22.44
2023-04-17T09:26:18.473Z,22.46
2023-04-17T09:29:04.251Z,22.48
2023-04-17T09:31:34.604Z,22.55
2023-04-17T09:34:04.873Z,22.62
2023-04-17T09:36:36.899Z,22.70
2023-04-17T09:39:06.349Z,22.83
2023-04-17T09:41:39.474Z,22.90
2023-04-17T09:44:07.568Z,22.99
2023-04-17T09:46:38.288Z,23.02
2023-04-17T09:49:12.314Z,22.96
2023-04-17T09:51:41.028Z,22.92
2023-04-17T09:54:11.746Z,22.86
2023-04-17T09:56:42.148Z,22.74
2023-04-17T09:59:11.161Z,22.58
2023-04-17T10:01:40.885Z,22.47
2023-04-17T10:04:09.527Z,22.25
2023-04-17T10:06:37.914Z,22.11
2023-04-17T10:09:06.043Z,21.97
2023-04-17T10:11:38.696Z,21.83
2023-04-17T10:14:13.197Z,21.68
2023-04-17T10:16:44.010Z,21.62
2023-04-17T10:19:31.997Z,21.49
2023-04-17T10:22:31.742Z,21.44
2023-04-17T10:25:18.869Z,21.38
2023-04-17T10:27:48.807Z,21.39
2023-04-17T10:32:48.140Z,21.51
2023-04-17T10:35:35.923Z,21.64
2023-04-17T10:38:06.361Z,21.67
2023-04-17T10:40:35.999Z,21.80
2023-04-17T10:43:12.552Z,21.87
2023-04-17T10:45:57.247Z,21.94
2023-04-17T10:48:29.989Z,22.07
2023-04-17T10:50:58.501Z,22.10
2023-04-17T10:53:40.959Z,22.07
2023-04-17T10:56:10.339Z,22.05
2023-04-17T10:58:57.077Z,22.10
2023-04-17T11:01:29.020Z,22.17
2023-04-17T11:03:59.658Z,22.25
2023-04-17T11:06:29.350Z,22.33
2023-04-17T11:08:58.091Z,22.43
2023-04-17T11:11:40.617Z,22.44
2023-04-17T11:14:14.638Z,22.48
2023-04-17T11:16:46.354Z,22.48
2023-04-17T11:19:19.888Z,22.46
2023-04-17T11:21:50.532Z,22.60
2023-04-17T11:24:24.566Z,22.69
2023-04-17T11:26:52.791Z,22.69
2023-04-17T11:29:22.491Z,22.85
2023-04-17T11:31:53.281Z,22.91
2023-04-17T11:34:22.631Z,22.95
2023-04-17T11:36:51.260Z,22.98
2023-04-17T11:39:19.943Z,23.01
2023-04-17T11:41:48.010Z,23.04
2023-04-17T11:44:16.712Z,23.02
2023-04-17T11:46:44.966Z,22.90
2023-04-17T11:49:14.570Z,22.90
2023-04-17T11:51:46.304Z,22.83
2023-04-17T11:54:22.082Z,22.81
2023-04-17T11:56:59.907Z,22.78
2023-04-17T11:59:32.196Z,22.69
2023-04-17T12:02:02.034Z,22.60
2023-04-17T12:04:35.165Z,22.56
2023-04-17T12:07:04.029Z,22.55
2023-04-17T12:09:32.694Z,22.55
2023-04-17T12:12:03.975Z,22.52
2023-04-17T12:14:32.139Z,22.46
2023-04-17T12:17:01.490Z,22.28
2023-04-17T12:19:31.842Z,22.18
2023-04-17T12:22:01.650Z,21.97
2023-04-17T12:24:30.247Z,21.87
2023-04-17T12:26:58.900Z,21.76
2023-04-17T12:29:36.766Z,21.72
2023-04-17T12:32:12.919Z,21.62
2023-04-17T12:34:41.437Z,21.59
2023-04-17T12:37:11.626Z,21.60
2023-04-17T12:39:39.588Z,21.83
2023-04-17T12:42:07.608Z,22.05
2023-04-17T12:44:36.213Z,22.36
2023-04-17T12:47:04.323Z,22.63
2023-04-17T12:49:32.494Z,22.78
2023-04-17T12:52:02.581Z,22.95
2023-04-17T12:54:33.360Z,23.11
2023-04-17T12:57:01.598Z,23.31
2023-04-17T12:59:30.279Z,23.51
2023-04-17T13:01:58.708Z,23.69
2023-04-17T13:04:27.122Z,23.89
2023-04-17T13:06:58.211Z,23.77
2023-04-17T13:09:26.928Z,23.75
2023-04-17T13:11:57.761Z,23.93
2023-04-17T13:14:26.033Z,24.39
2023-04-17T13:16:54.215Z,24.44
2023-04-17T13:19:22.489Z,24.39
2023-04-17T13:21:52.431Z,24.39
2023-04-17T13:24:20.539Z,24.28
2023-04-17T13:26:48.574Z,24.12
2023-04-17T13:29:19.530Z,24.03
2023-04-17T13:31:47.952Z,23.99
2023-04-17T13:34:16.330Z,23.95
2023-04-17T13:36:45.141Z,23.93
2023-04-17T13:39:13.840Z,23.93
2023-04-17T13:41:42.355Z,23.88
2023-04-17T13:44:10.591Z,23.87
2023-04-17T13:46:40.958Z,23.91
2023-04-17T13:49:14.797Z,23.82
2023-04-17T13:51:45.607Z,23.87
2023-04-17T13:54:14.199Z,23.92
2023-04-17T13:56:42.859Z,23.93
2023-04-17T13:59:11.604Z,24.02
2023-04-17T14:01:41.440Z,24.11
2023-04-17T14:04:09.949Z,24.22
2023-04-17T14:06:38.351Z,24.25
2023-04-17T14:09:07.533Z,24.37
2023-04-17T14:11:35.507Z,24.44
2023-04-17T14:14:03.506Z,24.45
2023-04-17T14:16:31.654Z,24.49
2023-04-17T14:19:06.686Z,24.54
2023-04-17T14:21:41.302Z,24.54
2023-04-17T14:24:09.364Z,24.58
2023-04-17T14:26:38.252Z,24.53
2023-04-17T14:29:06.281Z,24.46
2023-04-17T14:31:34.410Z,24.36
2023-04-17T14:34:04.390Z,24.36
2023-04-17T14:36:32.398Z,24.34
2023-04-17T14:39:00.767Z,24.39
2023-04-17T14:41:30.832Z,24.37
2023-04-17T14:43:58.844Z,24.25
2023-04-17T14:46:27.857Z,24.18
2023-04-17T14:48:56.834Z,24.07
2023-04-17T14:51:27.260Z,23.99
2023-04-17T14:53:59.159Z,23.98
2023-04-17T14:56:27.417Z,23.93
2023-04-17T14:58:55.951Z,23.89
2023-04-17T15:01:23.977Z,23.86
2023-04-17T15:03:52.466Z,23.84
2023-04-17T15:06:20.593Z,23.82
2023-04-17T15:08:49.968Z,23.86
2023-04-17T15:11:18.032Z,23.87
2023-04-17T15:13:46.044Z,23.77
2023-04-17T15:16:14.062Z,23.92
2023-04-17T15:18:42.050Z,23.92
2023-04-17T15:21:10.100Z,23.88
2023-04-17T15:23:38.786Z,23.91
2023-04-17T15:26:09.202Z,23.93
2023-04-17T15:28:37.593Z,23.94
2023-04-17T15:31:05.587Z,23.96
2023-04-17T15:33:34.267Z,23.97
2023-04-17T15:36:03.027Z,24.06
2023-04-17T15:38:30.956Z,24.07
2023-04-17T15:40:58.988Z,24.18
2023-04-17T15:43:28.523Z,24.34
2023-04-17T15:45:56.611Z,24.53
2023-04-17T15:48:24.602Z,24.59
2023-04-17T15:50:53.235Z,24.71
2023-04-17T15:53:21.441Z,24.77
2023-04-17T15:55:49.602Z,24.82
2023-04-17T15:58:17.630Z,24.85
2023-04-17T16:00:47.028Z,24.90
2023-04-17T16:03:15.213Z,24.87
2023-04-17T16:05:43.351Z,24.90
2023-04-17T16:08:11.295Z,24.84
2023-04-17T16:10:39.276Z,24.79
2023-04-17T16:13:07.234Z,24.68
2023-04-17T16:15:35.279Z,24.57
2023-04-17T16:18:05.398Z,24.52
2023-04-17T16:20:33.484Z,24.40
2023-04-17T16:23:01.394Z,24.34
2023-04-17T16:25:29.346Z,24.21
2023-04-17T16:27:57.326Z,24.02
2023-04-17T16:30:25.358Z,23.93
2023-04-17T16:32:53.394Z,23.86
2023-04-17T16:35:23.055Z,23.80
2023-04-17T16:37:51.069Z,23.74
2023-04-17T16:40:19.926Z,23.68
2023-04-17T16:42:47.992Z,23.72
2023-04-17T16:45:15.996Z,23.70
2023-04-17T16:47:44.225Z,23.75
2023-04-17T16:50:12.762Z,23.77
2023-04-17T16:52:42.190Z,23.75
2023-04-17T16:55:11.010Z,23.76
2023-04-17T16:57:40.760Z,23.78
2023-04-17T17:00:11.339Z,23.81
2023-04-17T17:02:39.531Z,23.73
2023-04-17T17:05:09.227Z,23.71
2023-04-17T17:07:37.235Z,23.74
2023-04-17T17:10:08.191Z,23.78
2023-04-17T17:12:36.174Z,23.76
2023-04-17T17:15:05.174Z,23.74
2023-04-17T17:17:33.355Z,23.76
2023-04-17T17:20:01.767Z,23.78
2023-04-17T17:22:29.769Z,23.77
2023-04-17T17:24:57.795Z,23.69
2023-04-17T17:27:27.541Z,23.64
2023-04-17T17:29:56.578Z,23.69
2023-04-17T17:32:25.778Z,23.75
2023-04-17T17:34:53.977Z,23.83
2023-04-17T17:37:21.962Z,23.95
2023-04-17T17:39:50.062Z,24.06
2023-04-17T17:42:18.212Z,24.17
2023-04-17T17:44:47.671Z,24.28
2023-04-17T17:47:15.700Z,24.30
2023-04-17T17:49:43.707Z,24.22
2023-04-17T17:52:11.856Z,24.18
2023-04-17T17:54:40.070Z,24.07
2023-04-17T17:57:09.151Z,23.98
2023-04-17T17:59:37.165Z,23.93
2023-04-17T18:05:18.697Z,23.68
2023-04-17T18:07:47.057Z,23.67
2023-04-17T18:10:15.250Z,23.66
2023-04-17T18:12:43.429Z,23.63
2023-04-17T18:15:12.236Z,23.69
2023-04-17T18:17:46.686Z,23.71
2023-04-17T18:20:15.139Z,23.80
2023-04-17T18:22:43.164Z,23.88
2023-04-17T18:25:12.083Z,23.98
2023-04-17T18:27:40.030Z,24.14
2023-04-17T18:30:10.178Z,24.51
2023-04-17T18:32:38.200Z,24.42
2023-04-17T18:35:08.779Z,24.66
2023-04-17T18:37:36.790Z,25.08
2023-04-17T18:40:07.475Z,25.47
2023-04-17T18:42:35.444Z,25.80
2023-04-17T18:45:03.666Z,25.95
2023-04-17T18:47:31.824Z,26.06
2023-04-17T18:49:59.849Z,26.12
2023-04-17T18:52:29.366Z,26.39
2023-04-17T18:54:57.364Z,26.49
2023-04-17T18:57:26.145Z,26.25
2023-04-17T18:59:54.857Z,25.76
2023-04-17T19:02:22.934Z,25.25
2023-04-17T19:04:51.126Z,24.71
2023-04-17T19:07:19.169Z,24.19
2023-04-17T19:09:48.619Z,23.67
2023-04-17T19:12:16.805Z,23.19
2023-04-17T19:14:44.746Z,22.76
2023-04-17T19:17:12.927Z,22.39
2023-04-17T19:19:41.064Z,22.04
2023-04-17T19:22:09.091Z,21.71
2023-04-17T19:24:37.316Z,21.46
2023-04-17T19:27:06.835Z,21.19
2023-04-17T19:29:34.938Z,20.97
2023-04-17T19:32:03.442Z,20.73
2023-04-17T19:34:31.412Z,20.57
2023-04-17T19:36:59.473Z,20.39
2023-04-17T19:39:28.482Z,20.20
2023-04-17T19:41:56.452Z,20.03
2023-04-17T19:44:27.820Z,19.89
2023-04-17T19:46:56.887Z,19.73
2023-04-17T19:49:24.960Z,19.64
2023-04-17T19:51:52.917Z,19.53
2023-04-17T19:54:21.076Z,19.40
2023-04-17T19:56:49.251Z,19.32
2023-04-17T19:59:17.218Z,19.23
2023-04-17T20:01:46.880Z,19.18
2023-04-17T20:04:16.712Z,19.11
2023-04-17T20:06:44.963Z,19.07
2023-04-17T20:09:14.703Z,19.00
2023-04-17T20:11:43.001Z,18.94
2023-04-17T20:14:11.379Z,18.86
2023-04-17T20:16:39.523Z,18.77
2023-04-17T20:19:09.650Z,18.72
2023-04-17T20:21:37.746Z,18.68
2023-04-17T20:24:06.410Z,18.65
2023-04-17T20:26:37.266Z,18.61
2023-04-17T20:29:05.776Z,18.54
2023-04-17T20:31:36.446Z,18.52
2023-04-17T20:34:07.008Z,18.50
2023-04-17T20:36:36.708Z,18.48
2023-04-17T20:39:04.803Z,18.47
2023-04-17T20:41:33.834Z,18.49
2023-04-17T20:44:02.253Z,18.48
2023-04-17T20:46:30.709Z,18.48
2023-04-17T20:48:59.168Z,18.53
2023-04-17T20:51:27.632Z,18.53
2023-04-17T20:53:57.136Z,18.60
2023-04-17T20:56:25.413Z,18.57
2023-04-17T20:58:53.877Z,18.62
2023-04-17T21:01:21.927Z,18.60
2023-04-17T21:03:50.096Z,18.60
2023-04-17T21:06:21.155Z,18.59
2023-04-17T21:08:49.216Z,18.58
2023-04-17T21:11:18.574Z,18.58
2023-04-17T21:13:46.486Z,18.59
2023-04-17T21:16:15.053Z,18.59
2023-04-17T21:18:43.375Z,18.59
2023-04-17T21:21:11.361Z,18.60
2023-04-17T21:23:39.455Z,18.61
2023-04-17T21:26:07.716Z,18.62
2023-04-17T21:28:43.148Z,18.60
2023-04-17T21:31:15.626Z,18.64
2023-04-17T21:33:44.258Z,18.61
2023-04-17T21:36:15.971Z,18.61
2023-04-17T21:38:45.199Z,18.55
2023-04-17T21:41:13.433Z,18.52
2023-04-17T21:43:42.885Z,18.51
2023-04-17T21:46:11.587Z,18.50
2023-04-17T21:48:40.736Z,18.47
2023-04-17T21:51:08.946Z,18.47
2023-04-17T21:53:37.951Z,18.46
2023-04-17T21:56:07.233Z,18.44
2023-04-17T21:58:35.525Z,18.43
2023-04-17T22:01:05.091Z,18.39
2023-04-17T22:03:33.198Z,18.36
2023-04-17T22:06:01.912Z,18.32
2023-04-17T22:08:29.977Z,18.31
2023-04-17T22:10:58.029Z,18.27
2023-04-17T22:13:26.621Z,18.24
2023-04-17T22:15:56.391Z,18.20
2023-04-17T22:18:28.077Z,18.16
2023-04-17T22:20:56.279Z,18.10
2023-04-17T22:23:24.630Z,18.03
2023-04-17T22:25:52.968Z,17.98
2023-04-17T22:28:23.042Z,17.92
2023-04-17T22:30:52.655Z,17.83
2023-04-17T22:33:35.981Z,17.76
2023-04-17T22:36:04.910Z,17.68
2023-04-17T22:38:36.626Z,17.60
2023-04-17T22:41:08.223Z,17.54
2023-04-17T22:43:37.415Z,17.46
2023-04-17T22:46:06.879Z,17.39
2023-04-17T22:48:37.222Z,17.34
2023-04-17T22:51:06.302Z,17.28
2023-04-17T22:53:37.643Z,17.23
2023-04-17T22:56:07.035Z,17.14
2023-04-17T22:58:38.956Z,17.12
2023-04-17T23:01:07.133Z,17.04
2023-04-17T23:03:38.408Z,16.98
2023-04-17T23:06:07.556Z,16.95
2023-04-17T23:08:35.967Z,16.89
2023-04-17T23:11:04.962Z,16.86
2023-04-17T23:13:33.146Z,16.84
2023-04-17T23:16:01.149Z,16.84
2023-04-17T23:18:29.100Z,16.81
2023-04-17T23:20:58.591Z,16.80
2023-04-17T23:23:26.850Z,16.80
2023-04-17T23:25:54.907Z,16.81
2023-04-17T23:28:23.097Z,16.79
2023-04-17T23:30:51.211Z,16.77
2023-04-17T23:33:19.318Z,16.72
2023-04-17T23:35:47.380Z,16.69
2023-04-17T23:38:16.784Z,16.64
2023-04-17T23:40:44.864Z,16.65
2023-04-17T23:43:13.139Z,16.65
2023-04-17T23:45:41.180Z,16.66
2023-04-17T23:48:09.854Z,16.63
2023-04-17T23:50:37.837Z,16.62
2023-04-17T23:53:06.057Z,16.63
2023-04-17T23:55:35.792Z,16.61
2023-04-17T23:58:03.968Z,16.62
